createdAt,value
2023-04-02T00:00:21.316Z,20.42
2023-04-02T00:01:21.358Z,20.40
2023-04-02T00:02:21.403Z,20.40
2023-04-02T00:03:21.507Z,20.41
2023-04-02T00:04:21.368Z,20.42
2023-04-02T00:05:21.372Z,20.40
2023-04-02T00:06:21.378Z,20.41
2023-04-02T00:07:21.410Z,20.42
2023-04-02T00:08:21.392Z,20.41
2023-04-02T00:09:21.412Z,20.42
2023-04-02T00:10:22.313Z,20.42
2023-04-02T00:11:21.443Z,20.41
2023-04-02T00:12:21.427Z,20.44
2023-04-02T00:13:21.432Z,20.44
2023-04-02T00:14:21.443Z,20.42
2023-04-02T00:15:21.428Z,20.41
2023-04-02T00:16:21.446Z,20.45
2023-04-02T00:17:21.429Z,20.42
2023-04-02T00:18:21.496Z,20.44
2023-04-02T00:19:21.416Z,20.42
2023-04-02T00:20:21.410Z,20.44
2023-04-02T00:21:21.420Z,20.45
2023-04-02T00:22:21.451Z,20.45
2023-04-02T00:23:21.455Z,20.44
2023-04-02T00:24:21.436Z,20.44
2023-04-02T00:25:21.449Z,20.44
2023-04-02T00:26:21.458Z,20.43
2023-04-02T00:27:21.470Z,20.45
2023-04-02T00:28:21.455Z,20.43
2023-04-02T00:29:21.452Z,20.44
2023-04-02T00:30:21.453Z,20.44
2023-04-02T00:31:21.476Z,20.44
2023-04-02T00:32:21.519Z,20.44
2023-04-02T00:33:21.461Z,20.43
2023-04-02T00:34:21.477Z,20.46
2023-04-02T00:35:21.457Z,20.44
2023-04-02T00:36:21.497Z,20.45
2023-04-02T00:37:21.471Z,20.45
2023-04-02T00:38:21.472Z,20.44
2023-04-02T00:39:21.448Z,20.45
2023-04-02T00:40:21.461Z,20.46
2023-04-02T00:41:21.445Z,20.45
2023-04-02T00:42:21.459Z,20.47
2023-04-02T00:43:21.455Z,20.46
2023-04-02T00:44:21.484Z,20.45
2023-04-02T00:45:21.455Z,20.47
2023-04-02T00:46:21.545Z,20.46
2023-04-02T00:47:21.442Z,20.49
2023-04-02T00:48:21.526Z,20.47
2023-04-02T00:49:21.454Z,20.49
2023-04-02T00:50:21.492Z,20.47
2023-04-02T00:51:21.441Z,20.47
2023-04-02T00:52:21.477Z,20.48
2023-04-02T00:53:21.454Z,20.50
2023-04-02T00:54:21.430Z,20.51
2023-04-02T00:55:21.453Z,20.50
2023-04-02T00:56:21.457Z,20.49
2023-04-02T00:57:21.499Z,20.51
2023-04-02T00:58:21.460Z,20.51
2023-04-02T00:59:21.437Z,20.50
2023-04-02T01:00:21.471Z,20.53
2023-04-02T01:01:21.537Z,20.52
2023-04-02T01:02:21.479Z,20.53
2023-04-02T01:03:21.544Z,20.53
2023-04-02T01:04:21.452Z,20.53
2023-04-02T01:05:21.471Z,20.52
2023-04-02T01:06:21.492Z,20.53
2023-04-02T01:07:21.470Z,20.54
2023-04-02T01:08:21.505Z,20.54
2023-04-02T01:09:21.477Z,20.55
2023-04-02T01:10:21.509Z,20.54
2023-04-02T01:11:21.453Z,20.55
2023-04-02T01:12:21.478Z,20.54
2023-04-02T01:13:21.487Z,20.55
2023-04-02T01:14:21.456Z,20.55
2023-04-02T01:15:21.480Z,20.57
2023-04-02T01:16:21.506Z,20.55
2023-04-02T01:17:21.444Z,20.57
2023-04-02T01:18:21.436Z,20.56
2023-04-02T01:19:21.449Z,20.58
2023-04-02T01:20:21.446Z,20.57
2023-04-02T01:21:21.460Z,20.56
2023-04-02T01:22:21.490Z,20.56
2023-04-02T01:23:21.459Z,20.58
2023-04-02T01:24:21.476Z,20.57
2023-04-02T01:25:21.451Z,20.58
2023-04-02T01:26:21.463Z,20.57
2023-04-02T01:27:21.479Z,20.57
2023-04-02T01:28:21.468Z,20.58
2023-04-02T01:29:21.473Z,20.59
2023-04-02T01:30:21.491Z,20.60
2023-04-02T01:31:21.488Z,20.59
2023-04-02T01:32:21.495Z,20.59
2023-04-02T01:33:21.487Z,20.60
2023-04-02T01:34:21.725Z,20.58
2023-04-02T01:35:21.467Z,20.60
2023-04-02T01:36:21.487Z,20.59
2023-04-02T01:37:21.449Z,20.60
2023-04-02T01:38:21.453Z,20.60
2023-04-02T01:39:21.456Z,20.61
2023-04-02T01:40:21.467Z,20.60
2023-04-02T01:41:21.442Z,20.61
2023-04-02T01:42:21.469Z,20.60
2023-04-02T01:43:21.468Z,20.63
2023-04-02T01:44:21.504Z,20.61
2023-04-02T01:45:21.443Z,20.62
2023-04-02T01:46:21.450Z,20.63
2023-04-02T01:47:21.434Z,20.64
2023-04-02T01:48:21.450Z,20.63
2023-04-02T01:49:21.445Z,20.63
2023-04-02T01:50:21.440Z,20.63
2023-04-02T01:51:21.503Z,20.62
2023-04-02T01:52:21.438Z,20.65
2023-04-02T01:53:21.442Z,20.64
2023-04-02T01:54:21.488Z,20.63
2023-04-02T01:55:21.450Z,20.65
2023-04-02T01:56:21.440Z,20.64
2023-04-02T01:57:21.528Z,20.66
2023-04-02T01:58:21.459Z,20.64
2023-04-02T01:59:21.455Z,20.64
2023-04-02T02:00:21.445Z,20.66
2023-04-02T02:01:21.586Z,20.66
2023-04-02T02:02:21.522Z,20.67
2023-04-02T02:03:21.522Z,20.68
2023-04-02T02:04:21.431Z,20.67
2023-04-02T02:05:21.505Z,20.66
2023-04-02T02:06:21.445Z,20.67
2023-04-02T02:07:21.442Z,20.67
2023-04-02T02:08:21.522Z,20.67
2023-04-02T02:09:21.453Z,20.69
2023-04-02T02:10:21.471Z,20.69
2023-04-02T02:11:21.588Z,20.69
2023-04-02T02:12:21.453Z,20.70
2023-04-02T02:13:21.464Z,20.69
2023-04-02T02:14:21.460Z,20.69
2023-04-02T02:15:21.456Z,20.70
2023-04-02T02:16:21.466Z,20.71
2023-04-02T02:17:21.574Z,20.71
2023-04-02T02:18:21.464Z,20.70
2023-04-02T02:19:21.478Z,20.70
2023-04-02T02:20:21.477Z,20.71
2023-04-02T02:21:21.563Z,20.71
2023-04-02T02:22:21.509Z,20.71
2023-04-02T02:23:21.527Z,20.71
2023-04-02T02:24:21.494Z,20.70
2023-04-02T02:25:21.483Z,20.71
2023-04-02T02:26:21.472Z,20.73
2023-04-02T02:27:21.483Z,20.73
2023-04-02T02:28:21.472Z,20.71
2023-04-02T02:29:21.493Z,20.71
2023-04-02T02:30:21.499Z,20.71
2023-04-02T02:31:21.566Z,20.71
2023-04-02T02:32:21.562Z,20.73
2023-04-02T02:33:21.548Z,20.73
2023-04-02T02:34:21.542Z,20.72
2023-04-02T02:35:21.551Z,20.73
2023-04-02T02:36:21.587Z,20.74
2023-04-02T02:37:21.551Z,20.74
2023-04-02T02:38:21.556Z,20.74
2023-04-02T02:39:21.554Z,20.75
2023-04-02T02:40:21.584Z,20.74
2023-04-02T02:41:21.628Z,20.73
2023-04-02T02:42:21.577Z,20.75
2023-04-02T02:43:21.598Z,20.76
2023-04-02T02:44:21.608Z,20.77
2023-04-02T02:45:21.605Z,20.77
2023-04-02T02:46:21.638Z,20.75
2023-04-02T02:47:21.624Z,20.77
2023-04-02T02:48:21.616Z,20.77
2023-04-02T02:49:21.608Z,20.79
2023-04-02T02:50:21.601Z,20.77
2023-04-02T02:51:21.677Z,20.79
2023-04-02T02:52:21.625Z,20.79
2023-04-02T02:53:21.607Z,20.79
2023-04-02T02:54:21.630Z,20.80
2023-04-02T02:55:21.630Z,20.81
2023-04-02T02:56:21.632Z,20.82
2023-04-02T02:57:21.680Z,20.82
2023-04-02T02:58:21.622Z,20.81
2023-04-02T02:59:21.619Z,20.83
2023-04-02T03:00:21.642Z,20.83
2023-04-02T03:01:21.882Z,20.83
2023-04-02T03:02:21.720Z,20.83
2023-04-02T03:03:21.823Z,20.84
2023-04-02T03:04:21.688Z,20.84
2023-04-02T03:05:21.692Z,20.85
2023-04-02T03:06:21.694Z,20.87
2023-04-02T03:07:21.723Z,20.88
2023-04-02T03:08:21.713Z,20.87
2023-04-02T03:09:21.722Z,20.86
2023-04-02T03:10:21.722Z,20.89
2023-04-02T03:11:21.818Z,20.88
2023-04-02T03:12:21.729Z,20.89
2023-04-02T03:13:21.766Z,20.89
2023-04-02T03:14:21.777Z,20.86
2023-04-02T03:15:21.775Z,20.88
2023-04-02T03:16:21.856Z,20.89
2023-04-02T03:17:21.816Z,20.88
2023-04-02T03:18:21.805Z,20.89
2023-04-02T03:19:21.804Z,20.89
2023-04-02T03:20:21.866Z,20.89
2023-04-02T03:21:21.951Z,20.90
2023-04-02T03:22:21.849Z,20.90
2023-04-02T03:23:21.891Z,20.90
2023-04-02T03:24:21.893Z,20.90
2023-04-02T03:25:21.886Z,20.90
2023-04-02T03:26:21.906Z,20.89
2023-04-02T03:27:21.917Z,20.89
2023-04-02T03:28:21.894Z,20.91
2023-04-02T03:29:21.901Z,20.90
2023-04-02T03:30:21.919Z,20.89
2023-04-02T03:31:21.951Z,20.92
2023-04-02T03:32:21.904Z,20.92
2023-04-02T03:33:21.911Z,20.91
2023-04-02T03:34:21.925Z,20.93
2023-04-02T03:35:21.907Z,20.90
2023-04-02T03:36:22.065Z,20.90
2023-04-02T03:37:21.931Z,20.93
2023-04-02T03:38:21.943Z,20.93
2023-04-02T03:39:21.921Z,20.93
2023-04-02T03:40:21.916Z,20.92
2023-04-02T03:41:21.987Z,20.92
2023-04-02T03:42:21.925Z,20.91
2023-04-02T03:43:21.940Z,20.93
2023-04-02T03:44:21.930Z,20.93
2023-04-02T03:45:21.907Z,20.93
2023-04-02T03:46:21.972Z,20.93
2023-04-02T03:47:21.969Z,20.91
2023-04-02T03:48:21.926Z,20.92
2023-04-02T03:49:21.928Z,20.93
2023-04-02T03:50:21.909Z,20.92
2023-04-02T03:51:21.992Z,20.93
2023-04-02T03:52:21.928Z,20.94
2023-04-02T03:53:21.926Z,20.93
2023-04-02T03:54:21.946Z,20.94
2023-04-02T03:55:21.943Z,20.91
2023-04-02T03:56:21.948Z,20.93
2023-04-02T03:57:21.999Z,20.93
2023-04-02T03:58:21.949Z,20.94
2023-04-02T03:59:21.935Z,20.94
2023-04-02T04:00:21.935Z,20.94
2023-04-02T04:01:21.955Z,20.92
2023-04-02T04:02:22.005Z,20.92
2023-04-02T04:03:21.962Z,20.93
2023-04-02T04:04:22.016Z,20.94
2023-04-02T04:05:21.963Z,20.93
2023-04-02T04:06:21.963Z,20.93
2023-04-02T04:07:21.980Z,20.95
2023-04-02T04:08:21.984Z,20.94
2023-04-02T04:09:21.975Z,20.95
2023-04-02T04:10:21.963Z,20.94
2023-04-02T04:11:22.053Z,20.94
2023-04-02T04:12:22.000Z,20.95
2023-04-02T04:13:21.998Z,20.94
2023-04-02T04:14:22.013Z,20.95
2023-04-02T04:15:22.007Z,20.95
2023-04-02T04:16:22.103Z,20.94
2023-04-02T04:17:22.009Z,20.95
2023-04-02T04:18:22.022Z,20.95
2023-04-02T04:19:22.022Z,20.96
2023-04-02T04:20:22.119Z,20.96
2023-04-02T04:21:22.127Z,20.95
2023-04-02T04:22:22.037Z,20.96
2023-04-02T04:23:22.036Z,20.93
2023-04-02T04:24:22.018Z,20.97
2023-04-02T04:25:22.034Z,20.96
2023-04-02T04:26:22.045Z,20.97
2023-04-02T04:27:22.074Z,20.96
2023-04-02T04:28:22.086Z,20.95
2023-04-02T04:29:22.079Z,20.96
2023-04-02T04:30:22.126Z,20.95
2023-04-02T04:31:24.612Z,20.95
2023-04-02T04:32:22.097Z,20.95
2023-04-02T04:33:22.094Z,20.94
2023-04-02T04:34:22.101Z,20.96
2023-04-02T04:35:22.073Z,20.95
2023-04-02T04:36:22.074Z,20.97
2023-04-02T04:37:22.065Z,20.94
2023-04-02T04:38:22.063Z,20.94
2023-04-02T04:39:22.050Z,20.95
2023-04-02T04:40:22.038Z,20.94
2023-04-02T04:41:22.068Z,20.92
2023-04-02T04:42:22.051Z,20.94
2023-04-02T04:43:22.053Z,20.94
2023-04-02T04:44:22.056Z,20.94
2023-04-02T04:45:22.029Z,20.92
2023-04-02T04:46:22.112Z,20.94
2023-04-02T04:47:22.004Z,20.93
2023-04-02T04:48:22.418Z,20.92
2023-04-02T04:49:21.990Z,20.92
2023-04-02T04:50:22.001Z,20.89
2023-04-02T04:51:21.981Z,20.91
2023-04-02T04:52:21.964Z,20.88
2023-04-02T04:53:21.972Z,20.88
2023-04-02T04:54:21.967Z,20.91
2023-04-02T04:55:21.963Z,20.88
2023-04-02T04:56:21.934Z,20.90
2023-04-02T04:57:21.983Z,20.89
2023-04-02T04:58:21.928Z,20.89
2023-04-02T04:59:21.912Z,20.89
2023-04-02T05:00:21.932Z,20.90
2023-04-02T05:01:21.934Z,20.90
2023-04-02T05:02:21.912Z,20.89
2023-04-02T05:03:21.903Z,20.88
2023-04-02T05:04:21.934Z,20.89
2023-04-02T05:05:21.910Z,20.89
2023-04-02T05:06:21.858Z,20.88
2023-04-02T05:07:21.871Z,20.88
2023-04-02T05:08:21.857Z,20.89
2023-04-02T05:09:21.856Z,20.89
2023-04-02T05:10:21.887Z,20.88
2023-04-02T05:11:21.829Z,20.86
2023-04-02T05:12:21.838Z,20.85
2023-04-02T05:13:21.837Z,20.86
2023-04-02T05:14:21.819Z,20.86
2023-04-02T05:15:21.807Z,20.86
2023-04-02T05:16:21.823Z,20.84
2023-04-02T05:17:21.833Z,20.85
2023-04-02T05:18:21.810Z,20.85
2023-04-02T05:19:21.772Z,20.86
2023-04-02T05:20:21.842Z,20.85
2023-04-02T05:21:21.749Z,20.85
2023-04-02T05:22:21.770Z,20.84
2023-04-02T05:23:21.753Z,20.85
2023-04-02T05:24:21.731Z,20.84
2023-04-02T05:25:21.726Z,20.83
2023-04-02T05:26:21.728Z,20.84
2023-04-02T05:27:21.725Z,20.84
2023-04-02T05:28:21.720Z,20.82
2023-04-02T05:29:21.688Z,20.81
2023-04-02T05:30:21.807Z,20.81
2023-04-02T05:31:21.747Z,20.82
2023-04-02T05:32:21.669Z,20.80
2023-04-02T05:33:21.689Z,20.82
2023-04-02T05:34:21.652Z,20.78
2023-04-02T05:35:21.654Z,20.81
2023-04-02T05:36:21.731Z,20.80
2023-04-02T05:37:21.684Z,20.79
2023-04-02T05:38:21.664Z,20.78
2023-04-02T05:39:21.641Z,20.79
2023-04-02T05:40:21.664Z,20.77
2023-04-02T05:41:21.628Z,20.79
2023-04-02T05:42:21.618Z,20.78
2023-04-02T05:43:21.600Z,20.79
2023-04-02T05:44:21.610Z,20.75
2023-04-02T05:45:21.596Z,20.78
2023-04-02T05:46:21.612Z,20.77
2023-04-02T05:47:21.624Z,20.76
2023-04-02T05:48:21.597Z,20.74
2023-04-02T05:49:21.572Z,20.75
2023-04-02T05:50:21.579Z,20.76
2023-04-02T05:51:21.536Z,20.76
2023-04-02T05:52:21.537Z,20.72
2023-04-02T05:53:21.560Z,20.75
2023-04-02T05:54:21.535Z,20.73
2023-04-02T05:55:21.536Z,20.73
2023-04-02T05:56:21.500Z,20.73
2023-04-02T05:57:23.121Z,20.73
2023-04-02T05:59:22.481Z,20.72
2023-04-02T06:00:21.495Z,20.74
2023-04-02T06:01:21.490Z,20.71
2023-04-02T06:02:21.490Z,20.71
2023-04-02T06:03:21.525Z,20.72
2023-04-02T06:04:21.458Z,20.70
2023-04-02T06:05:21.446Z,20.70
2023-04-02T06:06:21.432Z,20.71
2023-04-02T06:07:21.422Z,20.69
2023-04-02T06:08:21.420Z,20.69
2023-04-02T06:09:21.430Z,20.68
2023-04-02T06:10:22.857Z,20.68
2023-04-02T06:11:21.410Z,20.66
2023-04-02T06:12:21.410Z,20.62
2023-04-02T06:13:21.377Z,20.62
2023-04-02T06:14:21.404Z,20.59
2023-04-02T06:15:21.398Z,20.60
2023-04-02T06:16:21.382Z,20.60
2023-04-02T06:17:21.398Z,20.57
2023-04-02T06:18:21.365Z,20.57
2023-04-02T06:19:21.958Z,20.54
2023-04-02T06:20:21.357Z,20.54
2023-04-02T06:21:21.319Z,20.55
2023-04-02T06:22:21.322Z,20.53
2023-04-02T06:23:21.363Z,20.51
2023-04-02T06:24:21.292Z,20.51
2023-04-02T06:25:21.301Z,20.52
2023-04-02T06:26:21.298Z,20.51
2023-04-02T06:27:21.315Z,20.47
2023-04-02T06:28:21.326Z,20.45
2023-04-02T06:29:21.251Z,20.43
2023-04-02T06:30:21.261Z,20.42
2023-04-02T06:31:21.312Z,20.39
2023-04-02T06:32:21.246Z,20.39
2023-04-02T06:33:21.279Z,20.37
2023-04-02T06:34:21.208Z,20.35
2023-04-02T06:35:21.216Z,20.35
2023-04-02T06:36:21.261Z,20.32
2023-04-02T06:37:21.208Z,20.27
2023-04-02T06:38:21.184Z,20.27
2023-04-02T06:39:21.182Z,20.27
2023-04-02T06:40:21.180Z,20.22
2023-04-02T06:41:21.155Z,20.21
2023-04-02T06:42:21.174Z,20.23
2023-04-02T06:43:21.155Z,20.30
2023-04-02T06:44:21.162Z,20.29
2023-04-02T06:45:21.124Z,20.28
2023-04-02T06:46:21.167Z,20.31
2023-04-02T06:47:21.108Z,20.32
2023-04-02T06:48:21.122Z,20.34
2023-04-02T06:49:21.110Z,20.34
2023-04-02T06:50:21.086Z,20.35
2023-04-02T06:51:21.079Z,20.25
2023-04-02T06:52:21.080Z,20.18
2023-04-02T06:53:21.086Z,20.16
2023-04-02T06:54:21.098Z,20.16
2023-04-02T06:55:21.102Z,20.13
2023-04-02T06:56:21.047Z,20.10
2023-04-02T06:57:21.076Z,20.06
2023-04-02T06:58:21.044Z,20.09
2023-04-02T06:59:21.033Z,20.13
2023-04-02T07:00:21.020Z,20.15
2023-04-02T07:01:21.044Z,20.14
2023-04-02T07:02:21.028Z,20.16
2023-04-02T07:03:21.019Z,20.14
2023-04-02T07:04:21.036Z,20.14
2023-04-02T07:05:21.033Z,20.16
2023-04-02T07:06:21.049Z,20.16
2023-04-02T07:07:21.056Z,20.16
2023-04-02T07:08:21.039Z,20.15
2023-04-02T07:09:21.037Z,20.16
2023-04-02T07:10:21.075Z,20.10
2023-04-02T07:11:21.128Z,20.05
2023-04-02T07:12:21.094Z,20.03
2023-04-02T07:13:21.135Z,19.98
2023-04-02T07:14:21.184Z,19.98
2023-04-02T07:15:21.245Z,19.95
2023-04-02T07:16:21.407Z,19.93
2023-04-02T07:17:21.424Z,19.91
2023-04-02T07:18:21.454Z,19.87
2023-04-02T07:19:21.512Z,19.89
2023-04-02T07:20:21.565Z,19.87
2023-04-02T07:21:21.603Z,19.89
2023-04-02T07:22:21.634Z,19.95
2023-04-02T07:23:21.707Z,19.95
2023-04-02T07:24:21.768Z,19.96
2023-04-02T07:25:21.805Z,19.95
2023-04-02T07:26:21.889Z,19.97
2023-04-02T07:27:21.939Z,20.00
2023-04-02T07:28:22.871Z,19.99
2023-04-02T07:29:22.037Z,20.00
2023-04-02T07:30:22.097Z,19.99
2023-04-02T07:31:22.164Z,20.00
2023-04-02T07:32:22.192Z,19.99
2023-04-02T07:33:22.245Z,19.94
2023-04-02T07:34:22.272Z,19.98
2023-04-02T07:35:22.330Z,20.00
2023-04-02T07:36:22.416Z,19.99
2023-04-02T07:37:22.426Z,19.97
2023-04-02T07:38:22.459Z,19.99
2023-04-02T07:39:22.553Z,19.99
2023-04-02T07:40:22.572Z,20.03
2023-04-02T07:41:22.581Z,20.01
2023-04-02T07:42:22.640Z,20.02
2023-04-02T07:43:22.712Z,19.95
2023-04-02T07:44:22.737Z,19.98
2023-04-02T07:45:22.759Z,20.01
2023-04-02T07:46:22.838Z,20.03
2023-04-02T07:47:22.878Z,20.00
2023-04-02T07:48:22.877Z,19.94
2023-04-02T07:49:22.891Z,19.94
2023-04-02T07:50:23.018Z,19.90
2023-04-02T07:51:22.971Z,19.87
2023-04-02T07:52:22.990Z,19.85
2023-04-02T07:53:23.009Z,19.84
2023-04-02T07:54:23.005Z,19.82
2023-04-02T07:55:23.018Z,19.82
2023-04-02T07:56:23.047Z,19.80
2023-04-02T07:57:23.095Z,19.79
2023-04-02T07:58:23.083Z,19.79
2023-04-02T07:59:23.073Z,19.75
2023-04-02T08:00:23.083Z,19.75
2023-04-02T08:01:23.088Z,19.74
2023-04-02T08:02:23.295Z,19.75
2023-04-02T08:03:23.196Z,19.74
2023-04-02T08:04:23.354Z,19.73
2023-04-02T08:05:23.154Z,19.74
2023-04-02T08:06:23.137Z,19.72
2023-04-02T08:07:23.152Z,19.71
2023-04-02T08:08:23.171Z,19.72
2023-04-02T08:09:23.156Z,19.67
2023-04-02T08:10:23.207Z,19.69
2023-04-02T08:11:23.235Z,19.70
2023-04-02T08:12:23.220Z,19.68
2023-04-02T08:13:23.211Z,19.67
2023-04-02T08:14:23.216Z,19.67
2023-04-02T08:15:23.200Z,19.67
2023-04-02T08:16:23.252Z,19.65
2023-04-02T08:17:23.338Z,19.65
2023-04-02T08:18:23.210Z,19.66
2023-04-02T08:19:23.227Z,19.64
2023-04-02T08:20:23.225Z,19.65
2023-04-02T08:21:23.248Z,19.63
2023-04-02T08:22:23.252Z,19.61
2023-04-02T08:23:23.257Z,19.61
2023-04-02T08:24:23.285Z,19.59
2023-04-02T08:25:23.287Z,19.58
2023-04-02T08:26:23.318Z,19.57
2023-04-02T08:27:23.347Z,19.57
2023-04-02T08:28:23.412Z,19.56
2023-04-02T08:29:23.470Z,19.56
2023-04-02T08:30:23.514Z,19.56
2023-04-02T08:31:23.669Z,19.54
2023-04-02T08:32:23.640Z,19.54
2023-04-02T08:33:23.720Z,19.54
2023-04-02T08:34:23.752Z,19.53
2023-04-02T08:35:23.801Z,19.55
2023-04-02T08:36:23.875Z,19.51
2023-04-02T08:37:23.918Z,19.51
2023-04-02T08:38:23.961Z,19.51
2023-04-02T08:39:24.015Z,19.52
2023-04-02T08:40:24.099Z,19.52
2023-04-02T08:41:24.124Z,19.48
2023-04-02T08:42:24.185Z,19.49
2023-04-02T08:43:25.112Z,19.48
2023-04-02T08:44:24.264Z,19.46
2023-04-02T08:45:25.614Z,19.44
2023-04-02T08:46:24.347Z,19.43
2023-04-02T08:47:24.399Z,19.41
2023-04-02T08:48:24.428Z,19.41
2023-04-02T08:49:24.448Z,19.38
2023-04-02T08:50:24.481Z,19.39
2023-04-02T08:51:24.519Z,19.38
2023-04-02T08:52:24.574Z,19.35
2023-04-02T08:53:24.601Z,19.36
2023-04-02T08:54:24.608Z,19.39
2023-04-02T08:55:24.631Z,19.41
2023-04-02T08:56:24.660Z,19.45
2023-04-02T08:57:24.744Z,19.49
2023-04-02T08:58:24.747Z,19.48
2023-04-02T08:59:24.790Z,19.51
2023-04-02T09:00:24.817Z,19.54
2023-04-02T09:01:24.879Z,19.57
2023-04-02T09:02:24.952Z,19.60
2023-04-02T09:03:24.947Z,19.62
2023-04-02T09:04:25.065Z,19.64
2023-04-02T09:05:25.058Z,19.64
2023-04-02T09:06:25.108Z,19.63
2023-04-02T09:07:25.155Z,19.64
2023-04-02T09:08:25.200Z,19.65
2023-04-02T09:09:25.288Z,19.65
2023-04-02T09:10:25.314Z,19.65
2023-04-02T09:11:25.402Z,19.65
2023-04-02T09:12:25.439Z,19.65
2023-04-02T09:13:25.486Z,19.66
2023-04-02T09:14:25.545Z,19.60
2023-04-02T09:15:25.615Z,19.61
2023-04-02T09:16:25.681Z,19.58
2023-04-02T09:17:25.739Z,19.53
2023-04-02T09:18:26.547Z,19.49
2023-04-02T09:19:25.802Z,19.49
2023-04-02T09:20:25.850Z,19.46
2023-04-02T09:21:25.870Z,19.47
2023-04-02T09:22:25.929Z,19.45
2023-04-02T09:23:25.990Z,19.43
2023-04-02T09:24:26.561Z,19.45
2023-04-02T09:25:26.068Z,19.47
2023-04-02T09:26:26.084Z,19.46
2023-04-02T09:27:26.146Z,19.49
2023-04-02T09:28:26.184Z,19.48
2023-04-02T09:29:26.243Z,19.49
2023-04-02T09:30:26.319Z,19.52
2023-04-02T09:31:26.368Z,19.52
2023-04-02T09:32:26.421Z,19.50
2023-04-02T09:33:26.489Z,19.50
2023-04-02T09:34:26.510Z,19.47
2023-04-02T09:35:27.139Z,19.49
2023-04-02T09:36:26.669Z,19.49
2023-04-02T09:37:26.675Z,19.48
2023-04-02T09:38:26.730Z,19.47
2023-04-02T09:39:26.801Z,19.47
2023-04-02T09:40:26.847Z,19.46
2023-04-02T09:41:26.899Z,19.44
2023-04-02T09:42:26.953Z,19.45
2023-04-02T09:43:27.034Z,19.45
2023-04-02T09:44:27.079Z,19.44
2023-04-02T09:45:27.162Z,19.44
2023-04-02T09:46:27.226Z,19.44
2023-04-02T09:47:27.323Z,19.42
2023-04-02T09:48:27.324Z,19.39
2023-04-02T09:49:27.388Z,19.40
2023-04-02T09:50:27.432Z,19.42
2023-04-02T09:51:27.487Z,19.39
2023-04-02T09:52:27.582Z,19.42
2023-04-02T09:53:27.585Z,19.41
2023-04-02T09:54:27.654Z,19.39
2023-04-02T09:55:27.713Z,19.39
2023-04-02T09:56:27.762Z,19.40
2023-04-02T09:57:27.847Z,19.40
2023-04-02T09:58:27.869Z,19.39
2023-04-02T09:59:27.943Z,19.39
2023-04-02T10:01:28.029Z,19.39
2023-04-02T10:02:28.088Z,19.40
2023-04-02T10:03:28.062Z,19.40
2023-04-02T10:04:28.114Z,19.40
2023-04-02T10:05:39.987Z,19.40
2023-04-02T10:06:29.073Z,19.38
2023-04-02T10:07:28.050Z,19.38
2023-04-02T10:08:28.068Z,19.37
2023-04-02T10:09:28.028Z,19.37
2023-04-02T10:10:28.049Z,19.36
2023-04-02T10:11:36.639Z,19.35
2023-04-02T10:12:29.016Z,19.36
2023-04-02T10:13:28.000Z,19.36
2023-04-02T10:14:28.007Z,19.36
2023-04-02T10:15:27.987Z,19.37
2023-04-02T10:16:28.068Z,19.38
2023-04-02T10:17:27.989Z,19.36
2023-04-02T10:18:27.969Z,19.36
2023-04-02T10:19:27.968Z,19.36
2023-04-02T10:20:28.521Z,19.36
2023-04-02T10:21:27.943Z,19.38
2023-04-02T10:22:27.950Z,19.37
2023-04-02T10:23:27.950Z,19.35
2023-04-02T10:24:27.949Z,19.35
2023-04-02T10:25:27.940Z,19.37
2023-04-02T10:26:27.926Z,19.34
2023-04-02T10:27:27.936Z,19.33
2023-04-02T10:28:27.893Z,19.31
2023-04-02T10:29:27.891Z,19.32
2023-04-02T10:30:27.906Z,19.30
2023-04-02T10:31:28.024Z,19.26
2023-04-02T10:32:27.923Z,19.24
2023-04-02T10:33:27.910Z,19.23
2023-04-02T10:34:27.925Z,19.22
2023-04-02T10:35:27.978Z,19.19
2023-04-02T10:36:27.934Z,19.16
2023-04-02T10:37:27.964Z,19.09
2023-04-02T10:38:27.996Z,19.03
2023-04-02T10:39:28.023Z,19.02
2023-04-02T10:40:28.029Z,19.02
2023-04-02T10:41:28.050Z,19.01
2023-04-02T10:42:28.119Z,19.01
2023-04-02T10:43:28.198Z,18.98
2023-04-02T10:44:28.236Z,18.95
2023-04-02T10:45:28.263Z,18.94
2023-04-02T10:46:28.358Z,18.91
2023-04-02T10:47:28.396Z,18.89
2023-04-02T10:48:28.410Z,18.87
2023-04-02T10:49:28.495Z,18.84
2023-04-02T10:50:28.520Z,18.86
2023-04-02T10:51:28.577Z,18.90
2023-04-02T10:52:28.652Z,18.90
2023-04-02T10:53:28.704Z,18.92
2023-04-02T10:54:28.714Z,18.94
2023-04-02T10:55:28.773Z,18.92
2023-04-02T10:56:35.178Z,18.93
2023-04-02T10:57:29.843Z,18.94
2023-04-02T10:58:28.799Z,18.95
2023-04-02T10:59:28.777Z,18.95
2023-04-02T11:00:28.778Z,18.94
2023-04-02T11:01:28.800Z,18.93
2023-04-02T11:02:28.921Z,18.94
2023-04-02T11:03:28.855Z,18.97
2023-04-02T11:04:28.742Z,18.94
2023-04-02T11:05:28.726Z,18.97
2023-04-02T11:06:28.747Z,18.99
2023-04-02T11:07:28.718Z,18.98
2023-04-02T11:08:28.751Z,18.97
2023-04-02T11:09:28.770Z,19.00
2023-04-02T11:10:28.765Z,19.00
2023-04-02T11:11:28.762Z,19.04
2023-04-02T11:12:28.762Z,19.05
2023-04-02T11:13:28.776Z,19.04
2023-04-02T11:14:28.837Z,19.09
2023-04-02T11:15:28.959Z,19.10
2023-04-02T11:16:29.040Z,19.10
2023-04-02T11:17:28.965Z,19.12
2023-04-02T11:18:28.961Z,19.13
2023-04-02T11:19:28.936Z,19.14
2023-04-02T11:20:29.053Z,19.14
2023-04-02T11:21:29.047Z,19.15
2023-04-02T11:22:29.056Z,19.16
2023-04-02T11:23:29.050Z,19.14
2023-04-02T11:24:29.062Z,19.17
2023-04-02T11:25:29.067Z,19.17
2023-04-02T11:26:29.081Z,19.17
2023-04-02T11:27:29.090Z,19.15
2023-04-02T11:28:29.089Z,19.17
2023-04-02T11:29:29.099Z,19.20
2023-04-02T11:30:29.158Z,19.19
2023-04-02T11:31:29.146Z,19.20
2023-04-02T11:32:29.198Z,19.19
2023-04-02T11:33:36.636Z,19.21
2023-04-02T11:34:30.171Z,19.21
2023-04-02T11:35:29.164Z,19.18
2023-04-02T11:36:29.136Z,19.20
2023-04-02T11:37:29.127Z,19.19
2023-04-02T11:38:29.117Z,19.20
2023-04-02T11:39:29.100Z,19.20
2023-04-02T11:40:29.094Z,19.22
2023-04-02T11:41:29.109Z,19.20
2023-04-02T11:42:29.081Z,19.18
2023-04-02T11:43:29.071Z,19.19
2023-04-02T11:44:29.096Z,19.21
2023-04-02T11:45:29.066Z,19.19
2023-04-02T11:46:29.074Z,19.21
2023-04-02T11:47:29.077Z,19.20
2023-04-02T11:48:29.045Z,19.20
2023-04-02T11:49:29.055Z,19.22
2023-04-02T11:50:29.035Z,19.18
2023-04-02T11:51:29.020Z,19.19
2023-04-02T11:52:29.026Z,19.18
2023-04-02T11:53:28.999Z,19.20
2023-04-02T11:54:29.006Z,19.21
2023-04-02T11:55:28.980Z,19.21
2023-04-02T11:56:28.978Z,19.19
2023-04-02T11:57:29.012Z,19.22
2023-04-02T11:58:28.976Z,19.20
2023-04-02T11:59:29.002Z,19.24
2023-04-02T12:00:28.957Z,19.28
2023-04-02T12:01:28.960Z,19.27
2023-04-02T12:02:29.082Z,19.30
2023-04-02T12:03:28.924Z,19.29
2023-04-02T12:04:28.922Z,19.30
2023-04-02T12:05:29.010Z,19.33
2023-04-02T12:06:28.928Z,19.32
2023-04-02T12:07:28.923Z,19.33
2023-04-02T12:08:28.914Z,19.33
2023-04-02T12:09:28.910Z,19.36
2023-04-02T12:10:28.935Z,19.36
2023-04-02T12:11:28.918Z,19.37
2023-04-02T12:12:28.964Z,19.36
2023-04-02T12:13:28.955Z,19.36
2023-04-02T12:14:28.940Z,19.34
2023-04-02T12:15:28.951Z,19.37
2023-04-02T12:16:28.989Z,19.40
2023-04-02T12:17:29.028Z,19.38
2023-04-02T12:18:29.009Z,19.40
2023-04-02T12:19:29.027Z,19.40
2023-04-02T12:20:29.046Z,19.39
2023-04-02T12:21:29.056Z,19.39
2023-04-02T12:22:29.073Z,19.40
2023-04-02T12:23:29.125Z,19.38
2023-04-02T12:24:29.120Z,19.38
2023-04-02T12:25:29.163Z,19.39
2023-04-02T12:26:29.148Z,19.38
2023-04-02T12:27:29.173Z,19.37
2023-04-02T12:28:29.204Z,19.36
2023-04-02T12:29:29.210Z,19.36
2023-04-02T12:30:29.237Z,19.39
2023-04-02T12:31:29.316Z,19.36
2023-04-02T12:32:30.027Z,19.35
2023-04-02T12:33:29.252Z,19.34
2023-04-02T12:34:29.273Z,19.35
2023-04-02T12:35:29.286Z,19.34
2023-04-02T12:36:29.289Z,19.32
2023-04-02T12:37:29.340Z,19.31
2023-04-02T12:38:29.325Z,19.31
2023-04-02T12:39:29.340Z,19.31
2023-04-02T12:40:29.353Z,19.24
2023-04-02T12:41:29.387Z,19.28
2023-04-02T12:42:29.391Z,19.25
2023-04-02T12:43:29.423Z,19.25
2023-04-02T12:44:29.451Z,19.24
2023-04-02T12:45:29.846Z,19.22
2023-04-02T12:46:29.525Z,19.22
2023-04-02T12:47:29.548Z,19.27
2023-04-02T12:48:29.573Z,19.24
2023-04-02T12:49:29.543Z,19.22
2023-04-02T12:50:29.574Z,19.18
2023-04-02T12:51:29.603Z,19.23
2023-04-02T12:52:29.624Z,19.23
2023-04-02T12:53:29.620Z,19.21
2023-04-02T12:54:29.663Z,19.21